HST,Max TemperatureF,Mean TemperatureF,Min TemperatureF,Max Dew PointF,MeanDew PointF,Min DewpointF,Max Humidity, Mean Humidity, Min Humidity, Max Sea Level PressureIn, Mean Sea Level PressureIn, Min Sea Level PressureIn, Max VisibilityMiles, Mean VisibilityMiles, Min VisibilityMiles, Max Wind SpeedMPH, Mean Wind SpeedMPH, Max Gust SpeedMPH,PrecipitationIn, CloudCover, Events, WindDirDegrees
2011-12-1,81,72,62,66,61,53,84,71,58,30.04,29.97,29.92,10,10,10,10,7,14,0.00,3,,271
2011-12-2,81,75,68,72,67,58,82,74,66,30.09,30.03,29.98,10,8,1,14,6,20,0.25,7,Rain,185
2011-12-3,78,74,70,70,67,66,97,84,71,30.11,30.06,30.02,10,10,4,14,3,15,0.07,7,Rain,184
2011-12-4,78,73,67,70,65,61,90,77,64,30.11,30.08,30.02,10,10,7,9,4,13,0.12,7,Rain,229
2011-12-5,78,73,67,66,64,63,93,79,64,30.10,30.05,29.97,10,9,2,12,4,15,0.19,8,Rain,246
2011-12-6,78,72,65,67,64,60,93,79,64,30.04,30.00,29.95,10,9,2,15,5,17,0.04,6,Rain,236
2011-12-7,77,72,66,67,64,62,93,81,68,30.07,30.01,29.97,10,8,2,17,5,18,0.48,7,Rain,258
2011-12-8,72,68,64,67,64,61,90,85,79,30.10,30.06,30.00,10,7,2,10,6,12,0.24,8,Rain,267
2011-12-9,78,72,66,64,63,59,87,73,58,30.09,30.04,29.98,10,9,2,18,6,26,0.20,6,Rain,354
2011-12-10,76,71,65,70,64,59,90,80,69,30.06,30.02,29.98,10,6,1,25,8,36,0.50,7,Rain,300
2011-12-11,74,71,67,72,67,64,97,91,84,30.04,30.00,29.95,10,5,1,22,8,31,2.89,8,Rain,133
2011-12-12,76,72,68,72,68,65,93,86,79,30.04,30.00,29.94,10,9,4,7,3,7,0.15,7,Rain,263
2011-12-13,80,74,68,68,66,64,93,78,62,30.08,30.02,29.98,10,7,2,15,5,18,0.75,7,Rain,148
2011-12-14,76,72,68,69,67,65,93,86,79,30.11,30.07,30.03,10,6,1,14,4,20,1.34,8,Rain,254
2011-12-15,76,72,67,70,67,64,93,88,82,30.13,30.08,30.02,10,7,1,9,3,14,0.97,8,Rain,221
2011-12-16,77,72,66,68,65,60,93,84,74,30.14,30.09,30.03,10,9,2,13,5,15,0.15,7,Rain,294
2011-12-17,78,71,63,66,62,55,87,77,67,30.12,30.06,30.01,10,10,5,15,6,18,0.14,6,Rain,283
2011-12-18,79,72,64,66,63,60,93,79,64,30.09,30.05,29.99,10,8,2,14,5,17,1.11,6,Rain,266
2011-12-19,78,72,66,72,67,63,100,87,73,30.09,30.03,29.98,10,6,1,17,8,23,2.20,8,Rain,56
2011-12-20,76,72,67,70,67,64,100,90,79,30.06,30.01,29.95,10,8,2,16,5,23,1.45,7,Rain,310
2011-12-21,77,72,67,70,68,64,100,90,79,30.03,30.00,29.94,10,7,1,18,5,23,0.92,7,Rain,83
2011-12-22,79,73,66,68,66,63,97,80,62,30.08,30.02,29.98,10,8,2,17,7,24,0.70,7,Rain,80
2011-12-23,75,70,65,68,65,59,100,82,64,30.18,30.09,30.05,10,6,1,16,7,22,1.33,7,Rain,14
2011-12-24,75,69,62,68,64,58,93,79,64,30.19,30.14,30.10,10,8,2,18,7,23,0.69,7,Rain,282
2011-12-25,80,74,67,66,65,64,90,76,62,30.23,30.18,30.11,10,10,2,14,5,20,0.28,6,Rain,85
2011-12-26,79,72,65,65,64,62,93,77,60,30.21,30.17,30.10,10,9,1,16,6,24,0.30,6,Rain,302
2011-12-27,77,71,65,70,65,62,93,81,69,30.19,30.15,30.09,10,9,2,12,4,14,0.22,7,Rain,247
2011-12-28,78,72,65,67,65,61,93,77,60,30.21,30.17,30.11,10,9,2,16,5,18,0.76,8,Rain,255
2011-12-29,78,72,65,65,62,58,93,74,54,30.20,30.13,30.07,10,10,9,14,5,17,T,5,Rain,210
2011-12-30,79,71,62,67,62,53,81,71,60,30.11,30.06,30.01,10,10,10,16,7,20,0.00,5,,158
2011-12-31,78,73,67,68,65,58,90,76,62,30.09,30.04,29.99,10,9,2,16,7,20,0.05,6,Rain,338